sensor_id;sensor_type;location;lat;lon;timestamp;pressure;altitude;pressure_sealevel;temperature;humidity
61128;BME280;47013;42.664;23.242;2023-02-13T00:01:32;95709.88;;;-1.11;87.31
61128;BME280;47013;42.664;23.242;2023-02-13T00:03:59;95704.16;;;-1.05;88.60
61128;BME280;47013;42.664;23.242;2023-02-13T00:06:24;95697.22;;;-1.01;87.68
61128;BME280;47013;42.664;23.242;2023-02-13T00:08:49;95714.19;;;-0.97;86.85
61128;BME280;47013;42.664;23.242;2023-02-13T00:11:15;95711.22;;;-0.95;87.43
61128;BME280;47013;42.664;23.242;2023-02-13T00:13:40;95711.59;;;-1.02;87.00
61128;BME280;47013;42.664;23.242;2023-02-13T00:16:06;95704.25;;;-1.10;87.27
61128;BME280;47013;42.664;23.242;2023-02-13T00:18:35;95707.41;;;-1.08;87.41
61128;BME280;47013;42.664;23.242;2023-02-13T00:21:07;95704.03;;;-1.13;87.44
61128;BME280;47013;42.664;23.242;2023-02-13T00:23:34;95712.16;;;-1.24;87.80
61128;BME280;47013;42.664;23.242;2023-02-13T00:26:00;95713.25;;;-1.25;88.37
61128;BME280;47013;42.664;23.242;2023-02-13T00:28:26;95710.66;;;-1.30;88.56
61128;BME280;47013;42.664;23.242;2023-02-13T00:30:52;95713.88;;;-1.33;89.03
61128;BME280;47013;42.664;23.242;2023-02-13T00:33:17;95708.03;;;-1.35;89.34
61128;BME280;47013;42.664;23.242;2023-02-13T00:35:42;95712.56;;;-1.35;89.54
61128;BME280;47013;42.664;23.242;2023-02-13T00:38:08;95721.63;;;-1.36;89.25
61128;BME280;47013;42.664;23.242;2023-02-13T00:40:33;95723.22;;;-1.35;89.36
61128;BME280;47013;42.664;23.242;2023-02-13T00:42:59;95708.91;;;-1.39;89.65
61128;BME280;47013;42.664;23.242;2023-02-13T00:45:24;95706.84;;;-1.42;90.15
61128;BME280;47013;42.664;23.242;2023-02-13T00:47:49;95716.09;;;-1.40;89.85
61128;BME280;47013;42.664;23.242;2023-02-13T00:50:15;95720.50;;;-1.30;90.03
61128;BME280;47013;42.664;23.242;2023-02-13T00:52:40;95717.31;;;-1.32;88.96
61128;BME280;47013;42.664;23.242;2023-02-13T00:55:06;95716.44;;;-1.46;90.02
61128;BME280;47013;42.664;23.242;2023-02-13T00:57:31;95726.66;;;-1.54;91.27
61128;BME280;47013;42.664;23.242;2023-02-13T00:59:57;95729.44;;;-1.45;91.29
61128;BME280;47013;42.664;23.242;2023-02-13T01:02:23;95733.06;;;-1.36;91.25
61128;BME280;47013;42.664;23.242;2023-02-13T01:04:48;95735.66;;;-1.31;90.53
61128;BME280;47013;42.664;23.242;2023-02-13T01:07:13;95731.94;;;-1.30;90.29
61128;BME280;47013;42.664;23.242;2023-02-13T01:09:39;95729.13;;;-1.38;90.86
61128;BME280;47013;42.664;23.242;2023-02-13T01:12:04;95729.44;;;-1.45;91.03
61128;BME280;47013;42.664;23.242;2023-02-13T01:14:30;95731.31;;;-1.45;92.64
61128;BME280;47013;42.664;23.242;2023-02-13T01:16:55;95723.97;;;-1.30;91.78
61128;BME280;47013;42.664;23.242;2023-02-13T01:19:21;95732.66;;;-1.24;92.79
61128;BME280;47013;42.664;23.242;2023-02-13T01:21:46;95735.78;;;-1.17;92.83
61128;BME280;47013;42.664;23.242;2023-02-13T01:24:11;95734.53;;;-1.06;92.31
61128;BME280;47013;42.664;23.242;2023-02-13T01:26:37;95739.22;;;-0.98;92.11
61128;BME280;47013;42.664;23.242;2023-02-13T01:29:03;95733.53;;;-0.91;92.28
61128;BME280;47013;42.664;23.242;2023-02-13T01:31:28;95734.75;;;-0.83;93.48
61128;BME280;47013;42.664;23.242;2023-02-13T01:33:58;95731.75;;;-0.77;93.78
61128;BME280;47013;42.664;23.242;2023-02-13T01:36:24;95735.00;;;-0.66;93.06
61128;BME280;47013;42.664;23.242;2023-02-13T01:38:55;95743.94;;;-0.57;93.00
61128;BME280;47013;42.664;23.242;2023-02-13T01:41:21;95740.03;;;-0.46;92.80
61128;BME280;47013;42.664;23.242;2023-02-13T01:46:21;95739.78;;;-0.31;91.87
61128;BME280;47013;42.664;23.242;2023-02-13T01:48:48;95738.50;;;-0.33;91.52
61128;BME280;47013;42.664;23.242;2023-02-13T01:51:25;95748.97;;;-0.37;92.29
61128;BME280;47013;42.664;23.242;2023-02-13T01:53:57;95744.25;;;-0.58;91.46
61128;BME280;47013;42.664;23.242;2023-02-13T01:56:35;95748.34;;;-0.66;90.73
61128;BME280;47013;42.664;23.242;2023-02-13T01:59:06;95755.19;;;-0.60;91.08
61128;BME280;47013;42.664;23.242;2023-02-13T02:01:33;95757.13;;;-0.47;90.36
61128;BME280;47013;42.664;23.242;2023-02-13T02:04:09;95756.22;;;-0.42;90.12
61128;BME280;47013;42.664;23.242;2023-02-13T02:06:47;95753.06;;;-0.44;89.52
61128;BME280;47013;42.664;23.242;2023-02-13T02:09:17;95751.13;;;-0.39;89.26
61128;BME280;47013;42.664;23.242;2023-02-13T02:12:09;95750.44;;;-0.31;88.59
61128;BME280;47013;42.664;23.242;2023-02-13T02:14:37;95751.88;;;-0.52;87.43
61128;BME280;47013;42.664;23.242;2023-02-13T02:17:04;95744.69;;;-1.08;90.02
61128;BME280;47013;42.664;23.242;2023-02-13T02:20:01;95750.59;;;-1.54;93.13
61128;BME280;47013;42.664;23.242;2023-02-13T02:22:38;95746.34;;;-1.79;96.06
61128;BME280;47013;42.664;23.242;2023-02-13T02:33:21;95749.22;;;-1.08;96.92
61128;BME280;47013;42.664;23.242;2023-02-13T02:52:50;95759.53;;;-0.32;92.38
61128;BME280;47013;42.664;23.242;2023-02-13T02:57:58;95767.88;;;-0.19;91.50
61128;BME280;47013;42.664;23.242;2023-02-13T03:00:44;95774.78;;;-0.18;90.20
61128;BME280;47013;42.664;23.242;2023-02-13T03:03:29;95778.44;;;-0.14;88.78
61128;BME280;47013;42.664;23.242;2023-02-13T03:06:25;95771.63;;;-0.39;89.86
61128;BME280;47013;42.664;23.242;2023-02-13T03:08:55;95779.78;;;-0.31;90.06
61128;BME280;47013;42.664;23.242;2023-02-13T03:11:42;95776.03;;;-0.30;89.92
61128;BME280;47013;42.664;23.242;2023-02-13T03:14:28;95768.16;;;-0.72;91.23
61128;BME280;47013;42.664;23.242;2023-02-13T03:16:55;95778.88;;;-0.77;92.96
61128;BME280;47013;42.664;23.242;2023-02-13T03:25:35;95772.06;;;-0.32;91.33
61128;BME280;47013;42.664;23.242;2023-02-13T03:31:34;95776.19;;;-0.07;89.80
61128;BME280;47013;42.664;23.242;2023-02-13T03:34:08;95782.91;;;-0.10;89.15
61128;BME280;47013;42.664;23.242;2023-02-13T03:39:44;95784.88;;;-0.02;88.40
61128;BME280;47013;42.664;23.242;2023-02-13T03:42:29;95782.94;;;0.04;88.32
61128;BME280;47013;42.664;23.242;2023-02-13T03:45:00;95783.81;;;-0.01;88.74
61128;BME280;47013;42.664;23.242;2023-02-13T03:47:46;95770.88;;;0.07;88.33
61128;BME280;47013;42.664;23.242;2023-02-13T03:50:14;95765.09;;;-0.47;89.08
61128;BME280;47013;42.664;23.242;2023-02-13T03:53:00;95768.44;;;-0.93;92.35
61128;BME280;47013;42.664;23.242;2023-02-13T03:55:38;95769.88;;;-0.81;92.79
61128;BME280;47013;42.664;23.242;2023-02-13T03:58:27;95771.75;;;-0.63;91.92
61128;BME280;47013;42.664;23.242;2023-02-13T04:01:15;95764.31;;;-0.47;91.81
61128;BME280;47013;42.664;23.242;2023-02-13T04:03:59;95759.53;;;-0.32;90.61
61128;BME280;47013;42.664;23.242;2023-02-13T04:06:33;95766.78;;;-0.18;90.42
61128;BME280;47013;42.664;23.242;2023-02-13T04:09:00;95771.66;;;-0.07;89.93
61128;BME280;47013;42.664;23.242;2023-02-13T04:14:27;95772.28;;;0.04;89.23
61128;BME280;47013;42.664;23.242;2023-02-13T04:17:08;95769.69;;;0.13;88.73
61128;BME280;47013;42.664;23.242;2023-02-13T04:19:35;95776.97;;;-0.07;88.91
61128;BME280;47013;42.664;23.242;2023-02-13T04:22:01;95780.31;;;-0.15;89.70
61128;BME280;47013;42.664;23.242;2023-02-13T04:24:27;95785.19;;;-0.03;89.52
61128;BME280;47013;42.664;23.242;2023-02-13T04:26:53;95784.38;;;-0.04;89.10
61128;BME280;47013;42.664;23.242;2023-02-13T04:29:24;95782.97;;;-0.66;91.51
61128;BME280;47013;42.664;23.242;2023-02-13T04:31:50;95777.50;;;-0.94;94.04
61128;BME280;47013;42.664;23.242;2023-02-13T04:34:15;95777.53;;;-1.17;95.23
61128;BME280;47013;42.664;23.242;2023-02-13T04:36:41;95773.19;;;-1.32;96.30
61128;BME280;47013;42.664;23.242;2023-02-13T04:39:06;95771.72;;;-1.43;96.02
61128;BME280;47013;42.664;23.242;2023-02-13T04:41:32;95765.28;;;-1.61;96.95
61128;BME280;47013;42.664;23.242;2023-02-13T04:43:57;95777.34;;;-1.45;96.44
61128;BME280;47013;42.664;23.242;2023-02-13T04:46:23;95769.59;;;-1.65;96.71
61128;BME280;47013;42.664;23.242;2023-02-13T04:48:48;95768.69;;;-1.56;96.85
61128;BME280;47013;42.664;23.242;2023-02-13T04:51:13;95763.50;;;-1.66;97.12
61128;BME280;47013;42.664;23.242;2023-02-13T04:53:39;95762.69;;;-1.66;98.20
61128;BME280;47013;42.664;23.242;2023-02-13T04:56:04;95773.78;;;-1.59;97.98
61128;BME280;47013;42.664;23.242;2023-02-13T04:58:30;95768.06;;;-1.71;98.07
61128;BME280;47013;42.664;23.242;2023-02-13T05:00:55;95778.38;;;-1.65;97.22
61128;BME280;47013;42.664;23.242;2023-02-13T05:03:20;95787.84;;;-1.54;97.16
61128;BME280;47013;42.664;23.242;2023-02-13T05:05:47;95791.78;;;-1.51;95.79
61128;BME280;47013;42.664;23.242;2023-02-13T05:08:12;95793.19;;;-1.35;95.43
61128;BME280;47013;42.664;23.242;2023-02-13T05:10:38;95793.75;;;-1.38;94.40
61128;BME280;47013;42.664;23.242;2023-02-13T05:13:04;95797.59;;;-1.25;94.29
61128;BME280;47013;42.664;23.242;2023-02-13T05:15:29;95800.28;;;-1.25;94.15
61128;BME280;47013;42.664;23.242;2023-02-13T05:17:55;95796.41;;;-1.62;94.94
61128;BME280;47013;42.664;23.242;2023-02-13T05:20:20;95791.69;;;-1.94;96.74
61128;BME280;47013;42.664;23.242;2023-02-13T05:22:50;95796.53;;;-2.01;98.12
61128;BME280;47013;42.664;23.242;2023-02-13T05:25:37;95800.00;;;-2.00;98.40
61128;BME280;47013;42.664;23.242;2023-02-13T05:28:03;95794.53;;;-1.85;98.42
61128;BME280;47013;42.664;23.242;2023-02-13T05:30:29;95794.22;;;-1.79;97.51
61128;BME280;47013;42.664;23.242;2023-02-13T05:32:55;95795.84;;;-1.59;96.98
61128;BME280;47013;42.664;23.242;2023-02-13T05:35:21;95807.34;;;-1.39;95.74
61128;BME280;47013;42.664;23.242;2023-02-13T05:37:46;95811.19;;;-1.51;95.22
61128;BME280;47013;42.664;23.242;2023-02-13T05:40:13;95810.91;;;-1.25;94.62
61128;BME280;47013;42.664;23.242;2023-02-13T05:42:42;95812.00;;;-1.07;93.44
61128;BME280;47013;42.664;23.242;2023-02-13T05:45:08;95810.72;;;-1.10;92.80
61128;BME280;47013;42.664;23.242;2023-02-13T05:47:34;95811.31;;;-1.13;93.00
61128;BME280;47013;42.664;23.242;2023-02-13T05:49:59;95811.41;;;-1.23;93.29
61128;BME280;47013;42.664;23.242;2023-02-13T05:52:25;95812.13;;;-1.17;93.00
61128;BME280;47013;42.664;23.242;2023-02-13T05:54:51;95811.69;;;-1.25;93.31
61128;BME280;47013;42.664;23.242;2023-02-13T05:57:16;95806.22;;;-1.33;93.75
61128;BME280;47013;42.664;23.242;2023-02-13T05:59:42;95821.44;;;-1.15;93.63
61128;BME280;47013;42.664;23.242;2023-02-13T06:02:07;95820.50;;;-1.05;93.29
61128;BME280;47013;42.664;23.242;2023-02-13T06:04:32;95828.28;;;-1.09;93.39
61128;BME280;47013;42.664;23.242;2023-02-13T06:06:58;95828.53;;;-1.29;94.31
61128;BME280;47013;42.664;23.242;2023-02-13T06:09:23;95835.34;;;-1.47;94.19
61128;BME280;47013;42.664;23.242;2023-02-13T06:11:49;95818.50;;;-1.61;94.87
61128;BME280;47013;42.664;23.242;2023-02-13T06:14:14;95817.25;;;-1.45;95.55
61128;BME280;47013;42.664;23.242;2023-02-13T06:16:40;95833.31;;;-1.31;95.21
61128;BME280;47013;42.664;23.242;2023-02-13T06:19:06;95829.72;;;-1.16;95.07
61128;BME280;47013;42.664;23.242;2023-02-13T06:21:32;95832.72;;;-1.04;94.83
61128;BME280;47013;42.664;23.242;2023-02-13T06:24:03;95834.44;;;-0.90;94.63
61128;BME280;47013;42.664;23.242;2023-02-13T06:26:28;95841.84;;;-0.86;94.08
61128;BME280;47013;42.664;23.242;2023-02-13T06:28:54;95849.28;;;-0.65;94.29
61128;BME280;47013;42.664;23.242;2023-02-13T06:31:19;95839.72;;;-0.47;93.12
61128;BME280;47013;42.664;23.242;2023-02-13T06:33:44;95847.88;;;-0.38;91.42
61128;BME280;47013;42.664;23.242;2023-02-13T06:36:10;95853.19;;;-0.38;90.91
61128;BME280;47013;42.664;23.242;2023-02-13T06:38:35;95845.13;;;-0.33;90.76
61128;BME280;47013;42.664;23.242;2023-02-13T06:41:00;95844.09;;;-0.18;90.35
61128;BME280;47013;42.664;23.242;2023-02-13T06:43:26;95854.00;;;-0.05;89.71
61128;BME280;47013;42.664;23.242;2023-02-13T06:45:52;95852.56;;;0.03;88.52
61128;BME280;47013;42.664;23.242;2023-02-13T06:48:18;95854.78;;;0.14;89.06
61128;BME280;47013;42.664;23.242;2023-02-13T06:50:44;95849.56;;;0.23;87.53
61128;BME280;47013;42.664;23.242;2023-02-13T06:53:10;95858.19;;;0.34;87.89
61128;BME280;47013;42.664;23.242;2023-02-13T06:55:35;95855.41;;;0.39;86.32
61128;BME280;47013;42.664;23.242;2023-02-13T06:58:01;95849.72;;;0.45;86.23
61128;BME280;47013;42.664;23.242;2023-02-13T07:00:26;95854.56;;;0.57;85.90
61128;BME280;47013;42.664;23.242;2023-02-13T07:02:51;95842.50;;;0.59;85.86
61128;BME280;47013;42.664;23.242;2023-02-13T07:05:17;95844.81;;;0.66;84.58
61128;BME280;47013;42.664;23.242;2023-02-13T07:07:42;95841.63;;;0.78;85.49
61128;BME280;47013;42.664;23.242;2023-02-13T07:10:10;95848.16;;;0.85;84.34
61128;BME280;47013;42.664;23.242;2023-02-13T07:12:36;95838.47;;;0.89;84.39
61128;BME280;47013;42.664;23.242;2023-02-13T07:15:03;95842.81;;;0.99;84.21
61128;BME280;47013;42.664;23.242;2023-02-13T07:17:28;95838.19;;;1.05;82.90
61128;BME280;47013;42.664;23.242;2023-02-13T07:19:54;95836.88;;;1.02;83.05
61128;BME280;47013;42.664;23.242;2023-02-13T07:22:19;95853.81;;;1.11;83.59
61128;BME280;47013;42.664;23.242;2023-02-13T07:24:44;95843.72;;;1.08;82.82
61128;BME280;47013;42.664;23.242;2023-02-13T07:27:10;95857.44;;;1.15;82.77
61128;BME280;47013;42.664;23.242;2023-02-13T07:29:35;95860.41;;;1.14;81.26
61128;BME280;47013;42.664;23.242;2023-02-13T07:32:01;95855.47;;;1.21;81.61
61128;BME280;47013;42.664;23.242;2023-02-13T07:34:26;95847.47;;;1.21;81.65
61128;BME280;47013;42.664;23.242;2023-02-13T07:36:51;95857.16;;;1.31;81.54
61128;BME280;47013;42.664;23.242;2023-02-13T07:39:17;95847.09;;;2.93;100.00
61128;BME280;47013;42.664;23.242;2023-02-13T07:41:43;95851.72;;;4.10;100.00
61128;BME280;47013;42.664;23.242;2023-02-13T07:44:09;95857.53;;;3.60;93.02
61128;BME280;47013;42.664;23.242;2023-02-13T07:46:34;95853.34;;;3.19;77.80
61128;BME280;47013;42.664;23.242;2023-02-13T07:49:00;95863.66;;;2.95;76.51
61128;BME280;47013;42.664;23.242;2023-02-13T07:51:25;95853.47;;;2.44;76.44
61128;BME280;47013;42.664;23.242;2023-02-13T07:53:51;95861.81;;;2.20;77.09
61128;BME280;47013;42.664;23.242;2023-02-13T07:56:17;95852.16;;;1.88;78.50
61128;BME280;47013;42.664;23.242;2023-02-13T07:58:42;95853.78;;;1.75;79.06
61128;BME280;47013;42.664;23.242;2023-02-13T08:01:12;95848.25;;;1.71;79.20
61128;BME280;47013;42.664;23.242;2023-02-13T08:03:38;95850.63;;;1.73;79.51
61128;BME280;47013;42.664;23.242;2023-02-13T08:06:04;95861.94;;;1.70;79.41
61128;BME280;47013;42.664;23.242;2023-02-13T08:08:30;95854.63;;;1.62;79.35
61128;BME280;47013;42.664;23.242;2023-02-13T08:10:56;95849.47;;;1.52;79.11
61128;BME280;47013;42.664;23.242;2023-02-13T08:13:41;95856.63;;;1.42;79.61
61128;BME280;47013;42.664;23.242;2023-02-13T08:16:07;95856.28;;;1.22;80.05
61128;BME280;47013;42.664;23.242;2023-02-13T08:18:33;95843.13;;;1.11;80.69
61128;BME280;47013;42.664;23.242;2023-02-13T08:21:01;95852.13;;;1.02;81.71
61128;BME280;47013;42.664;23.242;2023-02-13T08:23:27;95849.53;;;1.10;82.41
61128;BME280;47013;42.664;23.242;2023-02-13T08:25:52;95844.50;;;1.09;82.19
61128;BME280;47013;42.664;23.242;2023-02-13T08:28:19;95853.19;;;1.14;81.80
61128;BME280;47013;42.664;23.242;2023-02-13T08:30:45;95853.47;;;1.27;81.51
61128;BME280;47013;42.664;23.242;2023-02-13T08:33:10;95857.25;;;1.26;81.17
61128;BME280;47013;42.664;23.242;2023-02-13T08:35:35;95848.63;;;1.29;80.72
61128;BME280;47013;42.664;23.242;2023-02-13T08:38:04;95836.84;;;1.30;80.35
61128;BME280;47013;42.664;23.242;2023-02-13T08:40:30;95850.94;;;1.22;81.73
61128;BME280;47013;42.664;23.242;2023-02-13T08:43:04;95853.47;;;1.27;82.63
61128;BME280;47013;42.664;23.242;2023-02-13T08:45:30;95849.50;;;1.38;81.41
61128;BME280;47013;42.664;23.242;2023-02-13T08:47:57;95857.03;;;1.36;80.59
61128;BME280;47013;42.664;23.242;2023-02-13T08:50:22;95855.06;;;1.28;80.35
61128;BME280;47013;42.664;23.242;2023-02-13T08:52:48;95858.34;;;1.25;81.00
61128;BME280;47013;42.664;23.242;2023-02-13T08:55:13;95859.31;;;1.29;80.37
61128;BME280;47013;42.664;23.242;2023-02-13T08:57:38;95858.34;;;1.25;80.66
61128;BME280;47013;42.664;23.242;2023-02-13T09:00:04;95860.41;;;1.28;81.04
61128;BME280;47013;42.664;23.242;2023-02-13T09:02:30;95850.31;;;1.38;80.69
61128;BME280;47013;42.664;23.242;2023-02-13T09:04:55;95853.09;;;1.33;81.06
61128;BME280;47013;42.664;23.242;2023-02-13T09:07:21;95843.06;;;1.39;81.11
61128;BME280;47013;42.664;23.242;2023-02-13T09:09:46;95854.63;;;1.62;79.88
61128;BME280;47013;42.664;23.242;2023-02-13T09:12:11;95851.81;;;1.67;78.55
61128;BME280;47013;42.664;23.242;2023-02-13T09:14:43;95848.00;;;1.82;78.66
61128;BME280;47013;42.664;23.242;2023-02-13T09:17:08;95847.97;;;1.95;78.11
61128;BME280;47013;42.664;23.242;2023-02-13T09:19:34;95854.34;;;2.08;77.29
61128;BME280;47013;42.664;23.242;2023-02-13T09:21:59;95847.63;;;2.11;76.70
61128;BME280;47013;42.664;23.242;2023-02-13T09:24:25;95836.84;;;2.02;76.89
61128;BME280;47013;42.664;23.242;2023-02-13T09:26:50;95839.38;;;2.07;77.22
61128;BME280;47013;42.664;23.242;2023-02-13T09:29:16;95843.72;;;2.17;76.94
61128;BME280;47013;42.664;23.242;2023-02-13T09:31:41;95837.31;;;2.26;76.99
61128;BME280;47013;42.664;23.242;2023-02-13T09:34:06;95846.00;;;2.32;75.34
61128;BME280;47013;42.664;23.242;2023-02-13T09:36:32;95843.16;;;2.28;75.12
61128;BME280;47013;42.664;23.242;2023-02-13T09:38:57;95830.16;;;2.35;75.29
61128;BME280;47013;42.664;23.242;2023-02-13T09:41:27;95835.28;;;2.32;76.08
61128;BME280;47013;42.664;23.242;2023-02-13T09:44:13;95831.09;;;2.40;75.80
61128;BME280;47013;42.664;23.242;2023-02-13T09:47:03;95827.09;;;2.59;75.33
61128;BME280;47013;42.664;23.242;2023-02-13T09:49:32;95832.19;;;2.70;75.31
61128;BME280;47013;42.664;23.242;2023-02-13T09:51:59;95824.31;;;2.73;74.26
61128;BME280;47013;42.664;23.242;2023-02-13T09:54:26;95811.31;;;2.97;76.55
61128;BME280;47013;42.664;23.242;2023-02-13T09:57:02;95818.34;;;3.16;72.75
61128;BME280;47013;42.664;23.242;2023-02-13T10:05:02;95802.28;;;3.42;72.46
61128;BME280;47013;42.664;23.242;2023-02-13T10:10:14;95784.47;;;3.72;71.79
61128;BME280;47013;42.664;23.242;2023-02-13T10:15:43;95780.97;;;3.97;70.71
61128;BME280;47013;42.664;23.242;2023-02-13T10:18:16;95780.16;;;4.31;69.25
61128;BME280;47013;42.664;23.242;2023-02-13T10:20:50;95777.38;;;4.57;69.75
61128;BME280;47013;42.664;23.242;2023-02-13T10:23:27;95773.41;;;4.93;67.62
61128;BME280;47013;42.664;23.242;2023-02-13T10:25:59;95775.25;;;5.10;66.27
61128;BME280;47013;42.664;23.242;2023-02-13T10:28:29;95770.50;;;5.36;64.43
61128;BME280;47013;42.664;23.242;2023-02-13T10:31:03;95761.81;;;5.93;63.56
61128;BME280;47013;42.664;23.242;2023-02-13T10:33:50;95753.97;;;6.33;60.51
61128;BME280;47013;42.664;23.242;2023-02-13T10:36:45;95753.81;;;6.63;59.63
61128;BME280;47013;42.664;23.242;2023-02-13T10:39:27;95751.38;;;6.94;58.18
61128;BME280;47013;42.664;23.242;2023-02-13T10:42:22;95746.84;;;7.10;56.37
61128;BME280;47013;42.664;23.242;2023-02-13T10:44:58;95742.81;;;7.17;56.06
61128;BME280;47013;42.664;23.242;2023-02-13T10:48:30;95740.00;;;7.65;55.02
61128;BME280;47013;42.664;23.242;2023-02-13T10:53:21;95733.38;;;8.63;51.99
61128;BME280;47013;42.664;23.242;2023-02-13T10:58:57;95721.94;;;9.01;49.66
61128;BME280;47013;42.664;23.242;2023-02-13T11:04:13;95720.81;;;9.56;45.22
61128;BME280;47013;42.664;23.242;2023-02-13T11:07:09;95716.25;;;9.60;44.99
61128;BME280;47013;42.664;23.242;2023-02-13T11:09:37;95704.25;;;9.77;45.61
61128;BME280;47013;42.664;23.242;2023-02-13T11:14:59;95702.03;;;10.44;43.78
61128;BME280;47013;42.664;23.242;2023-02-13T11:17:28;95692.84;;;10.52;42.30
61128;BME280;47013;42.664;23.242;2023-02-13T11:19:57;95693.88;;;10.67;42.25
61128;BME280;47013;42.664;23.242;2023-02-13T11:22:35;95697.09;;;10.50;42.85
61128;BME280;47013;42.664;23.242;2023-02-13T11:25:03;95685.88;;;10.51;43.06
61128;BME280;47013;42.664;23.242;2023-02-13T11:27:33;95678.47;;;10.71;42.23
61128;BME280;47013;42.664;23.242;2023-02-13T11:30:30;95672.34;;;10.78;41.95
61128;BME280;47013;42.664;23.242;2023-02-13T11:33:04;95665.97;;;10.93;41.66
61128;BME280;47013;42.664;23.242;2023-02-13T11:35:35;95669.63;;;11.04;41.48
61128;BME280;47013;42.664;23.242;2023-02-13T11:40:44;95651.91;;;10.84;41.47
61128;BME280;47013;42.664;23.242;2023-02-13T11:43:32;95643.69;;;10.54;41.05
61128;BME280;47013;42.664;23.242;2023-02-13T11:48:58;95640.75;;;10.66;40.92
61128;BME280;47013;42.664;23.242;2023-02-13T11:51:59;95635.25;;;10.85;41.21
61128;BME280;47013;42.664;23.242;2023-02-13T11:54:38;95625.16;;;11.12;40.97
61128;BME280;47013;42.664;23.242;2023-02-13T11:57:28;95628.81;;;11.23;40.08
61128;BME280;47013;42.664;23.242;2023-02-13T11:59:54;95615.47;;;11.41;39.53
61128;BME280;47013;42.664;23.242;2023-02-13T12:04:48;95605.41;;;11.45;39.31
61128;BME280;47013;42.664;23.242;2023-02-13T12:07:29;95599.81;;;11.65;39.32
61128;BME280;47013;42.664;23.242;2023-02-13T12:12:50;95601.03;;;12.04;38.13
61128;BME280;47013;42.664;23.242;2023-02-13T12:15:23;95598.47;;;12.22;38.01
61128;BME280;47013;42.664;23.242;2023-02-13T12:18:15;95593.31;;;12.10;36.87
61128;BME280;47013;42.664;23.242;2023-02-13T12:23:54;95590.09;;;11.60;36.75
61128;BME280;47013;42.664;23.242;2023-02-13T12:26:38;95588.66;;;11.73;37.40
61128;BME280;47013;42.664;23.242;2023-02-13T12:32:47;95589.34;;;10.47;39.55
61128;BME280;47013;42.664;23.242;2023-02-13T12:48:35;95571.63;;;9.84;40.98
61128;BME280;47013;42.664;23.242;2023-02-13T12:51:19;95570.09;;;9.64;41.70
61128;BME280;47013;42.664;23.242;2023-02-13T13:05:24;95551.38;;;8.43;43.64
61128;BME280;47013;42.664;23.242;2023-02-13T13:10:56;95553.22;;;7.91;45.62
61128;BME280;47013;42.664;23.242;2023-02-13T13:21:25;95551.44;;;7.52;47.07
61128;BME280;47013;42.664;23.242;2023-02-13T13:26:37;95542.03;;;7.30;47.79
61128;BME280;47013;42.664;23.242;2023-02-13T13:29:14;95539.03;;;7.19;48.38
61128;BME280;47013;42.664;23.242;2023-02-13T13:31:50;95535.94;;;7.05;49.14
61128;BME280;47013;42.664;23.242;2023-02-13T13:34:21;95538.78;;;6.96;49.22
61128;BME280;47013;42.664;23.242;2023-02-13T13:37:08;95542.31;;;6.72;50.05
61128;BME280;47013;42.664;23.242;2023-02-13T13:50:24;95535.66;;;6.42;50.88
61128;BME280;47013;42.664;23.242;2023-02-13T13:53:13;95529.38;;;6.38;51.37
61128;BME280;47013;42.664;23.242;2023-02-13T13:58:42;95531.63;;;6.11;52.17
61128;BME280;47013;42.664;23.242;2023-02-13T14:01:23;95526.16;;;6.08;52.49
61128;BME280;47013;42.664;23.242;2023-02-13T14:04:58;95528.94;;;6.11;52.40
61128;BME280;47013;42.664;23.242;2023-02-13T14:11:52;95536.72;;;6.01;53.27
61128;BME280;47013;42.664;23.242;2023-02-13T14:16:56;95525.94;;;6.01;53.24
61128;BME280;47013;42.664;23.242;2023-02-13T14:19:28;95523.13;;;5.97;53.08
61128;BME280;47013;42.664;23.242;2023-02-13T14:24:52;95514.50;;;5.91;53.40
61128;BME280;47013;42.664;23.242;2023-02-13T14:27:28;95513.22;;;5.89;53.50
61128;BME280;47013;42.664;23.242;2023-02-13T14:29:55;95510.22;;;5.90;53.47
61128;BME280;47013;42.664;23.242;2023-02-13T14:32:35;95512.78;;;5.87;53.42
61128;BME280;47013;42.664;23.242;2023-02-13T14:35:05;95511.88;;;5.83;53.46
61128;BME280;47013;42.664;23.242;2023-02-13T14:42:53;95515.00;;;5.73;53.36
61128;BME280;47013;42.664;23.242;2023-02-13T14:45:27;95507.25;;;5.71;53.54
61128;BME280;47013;42.664;23.242;2023-02-13T14:47:55;95513.66;;;5.79;53.87
61128;BME280;47013;42.664;23.242;2023-02-13T14:50:30;95509.94;;;5.71;53.36
61128;BME280;47013;42.664;23.242;2023-02-13T14:52:59;95505.34;;;5.59;54.11
61128;BME280;47013;42.664;23.242;2023-02-13T14:58:11;95506.44;;;5.46;54.51
61128;BME280;47013;42.664;23.242;2023-02-13T15:00:48;95509.91;;;5.47;54.83
61128;BME280;47013;42.664;23.242;2023-02-13T15:03:57;95503.56;;;5.51;55.15
61128;BME280;47013;42.664;23.242;2023-02-13T15:06:42;95505.91;;;5.53;55.02
61128;BME280;47013;42.664;23.242;2023-02-13T15:11:43;95506.09;;;5.23;54.71
61128;BME280;47013;42.664;23.242;2023-02-13T15:17:14;95505.91;;;5.08;55.37
61128;BME280;47013;42.664;23.242;2023-02-13T15:19:48;95503.78;;;5.01;56.01
61128;BME280;47013;42.664;23.242;2023-02-13T15:22:36;95501.75;;;4.98;56.06
61128;BME280;47013;42.664;23.242;2023-02-13T15:25:07;95512.25;;;4.91;56.02
61128;BME280;47013;42.664;23.242;2023-02-13T15:27:39;95512.34;;;4.82;56.68
61128;BME280;47013;42.664;23.242;2023-02-13T15:30:29;95518.63;;;4.65;57.06
61128;BME280;47013;42.664;23.242;2023-02-13T15:33:00;95518.63;;;4.65;57.34
61128;BME280;47013;42.664;23.242;2023-02-13T15:35:32;95515.69;;;4.58;57.22
61128;BME280;47013;42.664;23.242;2023-02-13T15:37:58;95520.63;;;4.56;58.09
61128;BME280;47013;42.664;23.242;2023-02-13T15:42:50;95524.13;;;4.48;58.38
61128;BME280;47013;42.664;23.242;2023-02-13T15:45:17;95517.00;;;4.52;58.26
61128;BME280;47013;42.664;23.242;2023-02-13T15:47:44;95521.00;;;4.46;58.30
61128;BME280;47013;42.664;23.242;2023-02-13T15:50:28;95522.94;;;4.37;59.01
61128;BME280;47013;42.664;23.242;2023-02-13T15:52:54;95529.88;;;4.38;59.49
61128;BME280;47013;42.664;23.242;2023-02-13T15:55:23;95530.59;;;4.26;59.57
61128;BME280;47013;42.664;23.242;2023-02-13T15:57:52;95528.13;;;4.21;59.66